メインページ
METAR-TAF:

METAR-TAF

空港 :

メドウレイク, サスカチュワン州, カナダ

緯度: 54-08N, 経度: 108-31W, 海抜: 480m

現時点の気象観測

当レポートは2時間47分前の00:00(UTC)に作成
無風
気温 -8°C
湿度 73%
気圧 1011 hPa
視程: 24.1km
高度20000ftの雲は散在している

METAR: CYLJ 070000Z 00000KT 15SM SCT200 M08/M12 A2986 RMK CI3 LAST STFD OB/NXT 07 1200UTC SLP150

時間: 20:47 (02:47 UTC)


TAF: 見つかりません

4,000以上の空港の気象観測と天気予報(METAR報とTAF報)

利用可能な観測所は地図上に黄色い丸と赤い丸で示す。

丸の上にカーソルを重ねると観測所名を参照できる。

次にクリックすると気象観測と天気予報を参照できる。

マップの切り替え:黒色「×」印の緑ボタンをクリックして拡大、「-」印の緑ボタンをクリックして縮小、緑色の三角印をクリックして隣りの地図に切り替え


METAR-TAF: